Time;durP1;ratioP1;P1;durP2;ratioP2;P2;SDS_P1;SDS_P2;PMS_P1;PMS_P2;Temp;Humidity;BMP_temperature;BMP_pressure;BME280_temperature;BME280_humidity;BME280_pressure;Samples;Min_cycle;Max_cycle;Signal;HPM_P1;HPM_P2
2021/05/08 00:00:08;;;;;;;4.18;2.70;;;;;;;;;;3607020;39;20043;-59
2021/05/08 00:02:33;;;;;;;4.75;2.60;;;;;;;;;;3605543;39;20140;-58
2021/05/08 00:04:59;;;;;;;4.38;2.85;;;;;;;;;;3607586;39;20362;-59
2021/05/08 00:07:24;;;;;;;6.40;3.33;;;;;;;;;;3606198;39;20040;-58
2021/05/08 00:09:50;;;;;;;4.88;2.95;;;;;;;;;;3605947;39;20047;-58
2021/05/08 00:12:15;;;;;;;4.93;2.80;;;;;;;;;;3607777;39;20062;-58
2021/05/08 00:14:41;;;;;;;8.35;2.72;;;;;;;;;;3607529;39;20031;-58
2021/05/08 00:17:06;;;;;;;5.60;3.45;;;;;;;;;;3607486;39;20031;-59
2021/05/08 00:19:32;;;;;;;5.93;3.72;;;;;;;;;;3608754;39;20023;-58
2021/05/08 00:21:58;;;;;;;5.90;3.25;;;;;;;;;;3608189;39;20473;-59
2021/05/08 00:24:23;;;;;;;6.32;3.53;;;;;;;;;;3607995;39;20192;-58
2021/05/08 00:26:49;;;;;;;5.13;3.30;;;;;;;;;;3608182;39;20024;-57
2021/05/08 00:29:14;;;;;;;6.72;3.50;;;;;;;;;;3607427;39;20028;-58
2021/05/08 00:31:39;;;;;;;5.28;3.03;;;;;;;;;;3609240;39;20036;-57
2021/05/08 00:34:06;;;;;;;7.53;3.13;;;;;;;;;;3608068;39;20388;-58
2021/05/08 00:36:33;;;;;;;6.03;3.05;;;;;;;;;;3608525;39;20345;-57
2021/05/08 00:38:58;;;;;;;3.95;2.47;;;;;;;;;;3606147;39;20032;-57
2021/05/08 00:41:23;;;;;;;4.97;2.85;;;;;;;;;;3608589;39;20042;-56
2021/05/08 00:43:56;;;;;;;4.78;2.80;;;;;;;;;;3609299;39;20270;-57
2021/05/08 00:46:24;;;;;;;5.63;2.97;;;;;;;;;;3607553;39;20058;-58
2021/05/08 00:48:50;;;;;;;4.45;2.58;;;;;;;;;;3609152;39;20132;-57
2021/05/08 00:51:15;;;;;;;5.05;3.08;;;;;;;;;;3610334;39;20030;-58
2021/05/08 00:53:41;;;;;;;4.72;2.65;;;;;;;;;;3609946;39;20327;-58
2021/05/08 00:56:07;;;;;;;7.95;3.38;;;;;;;;;;3607761;39;20274;-58
2021/05/08 00:58:34;;;;;;;6.57;3.50;;;;;;;;;;3608909;39;20035;-58
2021/05/08 01:00:59;;;;;;;5.20;3.25;;;;;;;;;;3608825;39;20450;-57
2021/05/08 01:03:25;;;;;;;6.47;3.40;;;;;;;;;;3606707;39;20056;-56
2021/05/08 01:05:50;;;;;;;5.47;3.30;;;;;;;;;;3608616;39;20108;-58
2021/05/08 01:08:16;;;;;;;4.85;3.33;;;;;;;;;;3608163;39;20047;-58
2021/05/08 01:10:42;;;;;;;6.30;3.63;;;;;;;;;;3608292;39;20136;-57
2021/05/08 01:13:08;;;;;;;5.32;3.50;;;;;;;;;;3606685;39;20040;-58
2021/05/08 01:15:33;;;;;;;7.80;4.35;;;;;;;;;;3607826;39;20377;-59
2021/05/08 01:17:59;;;;;;;6.32;4.28;;;;;;;;;;3609377;39;20032;-58
2021/05/08 01:20:25;;;;;;;5.95;4.38;;;;;;;;;;3607671;39;20036;-57
2021/05/08 01:22:51;;;;;;;6.38;4.25;;;;;;;;;;3609237;39;20364;-58
2021/05/08 01:25:26;;;;;;;5.32;3.67;;;;;;;;;;3608359;39;20109;-58
2021/05/08 01:27:54;;;;;;;7.97;4.25;;;;;;;;;;3606189;39;20035;-58
2021/05/08 01:30:24;;;;;;;8.63;4.28;;;;;;;;;;3607354;39;20024;-56
2021/05/08 01:32:50;;;;;;;6.22;3.88;;;;;;;;;;3607958;39;20050;-57
2021/05/08 01:35:16;;;;;;;6.80;4.10;;;;;;;;;;3607269;39;20171;-58
2021/05/08 01:37:42;;;;;;;6.45;3.58;;;;;;;;;;3606179;39;20353;-57
2021/05/08 01:40:12;;;;;;;5.85;4.15;;;;;;;;;;3607995;39;20051;-57
2021/05/08 01:42:40;;;;;;;6.78;4.07;;;;;;;;;;3607285;39;20055;-58
2021/05/08 01:45:11;;;;;;;4.90;3.08;;;;;;;;;;3608644;39;20094;-58
2021/05/08 01:47:37;;;;;;;5.40;3.85;;;;;;;;;;3606148;39;20113;-58
2021/05/08 01:50:04;;;;;;;7.72;4.20;;;;;;;;;;3610237;39;20314;-57
2021/05/08 01:52:29;;;;;;;7.13;3.90;;;;;;;;;;3607868;39;20035;-58
2021/05/08 01:54:54;;;;;;;7.95;4.30;;;;;;;;;;3608501;39;20072;-56
2021/05/08 01:57:20;;;;;;;6.15;3.88;;;;;;;;;;3607508;39;20043;-56
2021/05/08 01:59:45;;;;;;;5.43;4.28;;;;;;;;;;3607481;39;20446;-57
2021/05/08 02:02:11;;;;;;;6.45;4.30;;;;;;;;;;3607630;39;20040;-58
2021/05/08 02:04:36;;;;;;;6.68;4.72;;;;;;;;;;3606729;39;20042;-57
2021/05/08 02:07:01;;;;;;;7.45;4.32;;;;;;;;;;3608008;39;20278;-58
2021/05/08 02:09:27;;;;;;;6.90;4.35;;;;;;;;;;3607417;39;20047;-58
2021/05/08 02:11:52;;;;;;;6.25;4.50;;;;;;;;;;3607689;39;20112;-57
2021/05/08 02:14:18;;;;;;;6.43;4.63;;;;;;;;;;3607211;39;20028;-58
2021/05/08 02:16:43;;;;;;;9.40;4.65;;;;;;;;;;3607604;39;20034;-57
2021/05/08 02:19:08;;;;;;;6.70;4.70;;;;;;;;;;3608554;39;20043;-56
2021/05/08 02:21:35;;;;;;;7.10;4.65;;;;;;;;;;3606758;39;20039;-57
2021/05/08 02:24:00;;;;;;;6.43;4.95;;;;;;;;;;3607167;39;20059;-56
2021/05/08 02:26:26;;;;;;;6.90;4.78;;;;;;;;;;3606983;39;20279;-58
2021/05/08 02:28:51;;;;;;;9.88;4.88;;;;;;;;;;3606461;39;20043;-58
2021/05/08 02:31:17;;;;;;;7.15;4.68;;;;;;;;;;3602716;39;20085;-55
2021/05/08 02:33:42;;;;;;;5.47;3.97;;;;;;;;;;3608351;39;20051;-58
2021/05/08 02:36:07;;;;;;;7.20;4.35;;;;;;;;;;3607572;39;20031;-56
2021/05/08 02:38:33;;;;;;;9.23;5.03;;;;;;;;;;3607696;39;20038;-58
2021/05/08 02:40:58;;;;;;;5.78;4.43;;;;;;;;;;3606460;39;20067;-57
2021/05/08 02:43:24;;;;;;;8.43;5.13;;;;;;;;;;3607509;39;20038;-57
2021/05/08 02:45:49;;;;;;;8.07;5.15;;;;;;;;;;3607757;39;20055;-58
2021/05/08 02:48:14;;;;;;;8.98;4.65;;;;;;;;;;3608253;39;20461;-57
2021/05/08 02:50:40;;;;;;;6.47;4.60;;;;;;;;;;3608632;39;20035;-57
2021/05/08 02:53:05;;;;;;;8.10;4.70;;;;;;;;;;3607711;39;20122;-57
2021/05/08 02:55:30;;;;;;;7.75;4.88;;;;;;;;;;3608991;39;20394;-57
2021/05/08 02:58:01;;;;;;;6.35;4.45;;;;;;;;;;3607127;39;20052;-57
2021/05/08 03:00:26;;;;;;;8.75;4.65;;;;;;;;;;3608257;39;20043;-56
2021/05/08 03:02:52;;;;;;;6.47;4.85;;;;;;;;;;3607227;39;20050;-54
2021/05/08 03:05:17;;;;;;;7.38;4.82;;;;;;;;;;3606677;39;20051;-58
2021/05/08 03:07:42;;;;;;;6.38;4.57;;;;;;;;;;3608448;39;20039;-58
2021/05/08 03:10:08;;;;;;;6.50;4.63;;;;;;;;;;3607261;39;20082;-57
2021/05/08 03:12:35;;;;;;;8.40;4.53;;;;;;;;;;3605994;39;20031;-55
2021/05/08 03:15:00;;;;;;;8.55;4.93;;;;;;;;;;3607568;39;20322;-58
2021/05/08 03:17:26;;;;;;;6.97;4.30;;;;;;;;;;3606028;39;20047;-57
2021/05/08 03:19:51;;;;;;;5.90;4.13;;;;;;;;;;3607889;39;20043;-57
2021/05/08 03:22:16;;;;;;;7.75;4.55;;;;;;;;;;3608733;39;20036;-56
2021/05/08 03:24:42;;;;;;;8.23;4.15;;;;;;;;;;3606565;39;20084;-57
2021/05/08 03:27:07;;;;;;;6.03;4.30;;;;;;;;;;3606002;39;20369;-58
2021/05/08 03:29:33;;;;;;;6.93;4.25;;;;;;;;;;3606480;39;20035;-57
2021/05/08 03:31:58;;;;;;;5.82;3.92;;;;;;;;;;3607047;39;20059;-58
2021/05/08 03:34:24;;;;;;;6.53;4.05;;;;;;;;;;3606682;39;20040;-57
2021/05/08 03:36:49;;;;;;;4.68;3.28;;;;;;;;;;3607305;39;20024;-57
2021/05/08 03:39:14;;;;;;;6.80;3.35;;;;;;;;;;3606709;39;20032;-57
2021/05/08 03:41:41;;;;;;;5.22;4.05;;;;;;;;;;3606997;39;20332;-58
2021/05/08 03:44:07;;;;;;;5.90;3.58;;;;;;;;;;3608113;39;20031;-58
2021/05/08 03:46:32;;;;;;;5.65;3.72;;;;;;;;;;3606619;39;20089;-58
2021/05/08 03:48:58;;;;;;;5.70;3.90;;;;;;;;;;3607011;39;20044;-58
2021/05/08 03:51:24;;;;;;;5.50;3.78;;;;;;;;;;3608033;39;20035;-58
2021/05/08 03:53:51;;;;;;;6.35;3.58;;;;;;;;;;3607037;39;20059;-57
2021/05/08 03:56:16;;;;;;;7.25;4.15;;;;;;;;;;3607109;39;20251;-57
2021/05/08 03:58:42;;;;;;;6.68;3.78;;;;;;;;;;3606957;39;20042;-57
2021/05/08 04:01:07;;;;;;;6.07;4.50;;;;;;;;;;3607464;39;20023;-57
2021/05/08 04:03:33;;;;;;;5.90;3.85;;;;;;;;;;3606301;39;20094;-57
2021/05/08 04:05:58;;;;;;;5.95;4.40;;;;;;;;;;3606863;39;20031;-57
2021/05/08 04:08:24;;;;;;;9.23;4.53;;;;;;;;;;3606762;39;20118;-57
2021/05/08 04:10:50;;;;;;;7.72;4.05;;;;;;;;;;3607115;39;20266;-57
2021/05/08 04:13:17;;;;;;;5.97;3.88;;;;;;;;;;3605878;39;20028;-57
2021/05/08 04:15:45;;;;;;;5.28;4.07;;;;;;;;;;3606403;39;21669;-58
2021/05/08 04:18:11;;;;;;;7.82;4.40;;;;;;;;;;3606743;39;20080;-57
2021/05/08 04:20:37;;;;;;;5.80;4.22;;;;;;;;;;3606971;39;20309;-56
2021/05/08 04:23:03;;;;;;;6.55;4.63;;;;;;;;;;3606211;39;20035;-58
2021/05/08 04:25:28;;;;;;;6.05;3.90;;;;;;;;;;3608345;39;20036;-58
2021/05/08 04:27:54;;;;;;;5.43;4.05;;;;;;;;;;3606544;39;20080;-58
2021/05/08 04:30:20;;;;;;;7.68;4.55;;;;;;;;;;3605487;39;20032;-57
2021/05/08 04:32:46;;;;;;;6.60;3.78;;;;;;;;;;3606146;39;20044;-56
2021/05/08 04:35:12;;;;;;;5.57;4.03;;;;;;;;;;3607137;39;20035;-57
2021/05/08 04:37:37;;;;;;;6.28;4.63;;;;;;;;;;3608507;39;20035;-56
2021/05/08 04:40:04;;;;;;;7.18;4.70;;;;;;;;;;3606919;39;20031;-57
2021/05/08 04:42:30;;;;;;;6.20;4.60;;;;;;;;;;3607221;39;20047;-56
2021/05/08 04:44:55;;;;;;;6.43;4.00;;;;;;;;;;3607187;39;20035;-57
2021/05/08 04:47:21;;;;;;;6.65;4.78;;;;;;;;;;3607357;39;20425;-56
2021/05/08 04:49:47;;;;;;;8.18;4.20;;;;;;;;;;3605973;39;20076;-58
2021/05/08 04:52:13;;;;;;;6.65;4.38;;;;;;;;;;3606625;39;20028;-58
2021/05/08 04:54:38;;;;;;;5.43;3.90;;;;;;;;;;3608135;39;20058;-60
2021/05/08 04:57:04;;;;;;;7.93;4.43;;;;;;;;;;3606657;39;20488;-56
2021/05/08 04:59:30;;;;;;;7.32;4.35;;;;;;;;;;3605254;39;20050;-55
2021/05/08 05:01:56;;;;;;;6.40;4.53;;;;;;;;;;3607146;39;20051;-58
2021/05/08 05:04:21;;;;;;;6.03;4.28;;;;;;;;;;3608566;39;20350;-59
2021/05/08 05:06:47;;;;;;;7.35;4.45;;;;;;;;;;3607008;39;20043;-59
2021/05/08 05:09:12;;;;;;;5.63;4.50;;;;;;;;;;3609360;39;20039;-60
2021/05/08 05:11:37;;;;;;;5.15;3.92;;;;;;;;;;3609165;39;20032;-58
2021/05/08 05:14:04;;;;;;;6.22;4.53;;;;;;;;;;3607528;39;20406;-60
2021/05/08 05:16:29;;;;;;;7.47;4.55;;;;;;;;;;3606785;39;20346;-59
2021/05/08 05:18:55;;;;;;;8.30;4.57;;;;;;;;;;3608034;39;20035;-60
2021/05/08 05:21:20;;;;;;;7.10;4.78;;;;;;;;;;3606066;39;20371;-60
2021/05/08 05:23:48;;;;;;;6.30;4.78;;;;;;;;;;3608433;39;20302;-60
2021/05/08 05:26:14;;;;;;;7.70;4.70;;;;;;;;;;3605927;39;20433;-60
2021/05/08 05:28:39;;;;;;;8.15;5.18;;;;;;;;;;3606261;39;20038;-61
2021/05/08 05:31:05;;;;;;;7.60;4.57;;;;;;;;;;3608476;39;20500;-59
2021/05/08 05:33:30;;;;;;;7.45;4.90;;;;;;;;;;3606669;39;20038;-59
2021/05/08 05:35:56;;;;;;;5.97;4.40;;;;;;;;;;3607357;39;20034;-60
2021/05/08 05:38:22;;;;;;;10.80;5.00;;;;;;;;;;3609128;39;20040;-55
2021/05/08 05:40:48;;;;;;;7.40;4.78;;;;;;;;;;3608163;39;20039;-58
2021/05/08 05:43:13;;;;;;;5.43;4.28;;;;;;;;;;3608786;39;20040;-60
2021/05/08 05:45:39;;;;;;;7.10;5.18;;;;;;;;;;3607404;39;20083;-59
2021/05/08 05:48:05;;;;;;;7.55;4.82;;;;;;;;;;3609268;39;20055;-59
2021/05/08 05:50:36;;;;;;;8.63;4.68;;;;;;;;;;3605675;39;20035;-59
2021/05/08 05:53:02;;;;;;;10.93;5.30;;;;;;;;;;3606580;39;20035;-60
2021/05/08 05:55:27;;;;;;;9.02;5.22;;;;;;;;;;3608161;39;20046;-60
2021/05/08 05:57:54;;;;;;;8.90;5.63;;;;;;;;;;3607460;39;20048;-60
2021/05/08 06:00:20;;;;;;;9.32;5.95;;;;;;;;;;3606793;39;20052;-59
2021/05/08 06:02:46;;;;;;;10.05;5.82;;;;;;;;;;3607646;39;20715;-61
2021/05/08 06:05:14;;;;;;;12.07;6.40;;;;;;;;;;3608584;39;20034;-59
2021/05/08 06:07:40;;;;;;;8.60;6.22;;;;;;;;;;3607841;39;20035;-60
2021/05/08 06:10:08;;;;;;;9.93;6.18;;;;;;;;;;3607194;39;20801;-61
2021/05/08 06:12:33;;;;;;;9.73;6.30;;;;;;;;;;3607407;39;20032;-61
2021/05/08 06:14:59;;;;;;;9.90;7.10;;;;;;;;;;3607552;39;20050;-61
2021/05/08 06:17:24;;;;;;;12.88;7.15;;;;;;;;;;3606155;39;20123;-60
2021/05/08 06:19:50;;;;;;;7.50;6.15;;;;;;;;;;3606338;39;20056;-59
2021/05/08 06:22:15;;;;;;;8.30;6.18;;;;;;;;;;3607665;39;20059;-60
2021/05/08 06:24:41;;;;;;;7.43;5.90;;;;;;;;;;3607392;39;20546;-60
2021/05/08 06:27:07;;;;;;;7.93;6.20;;;;;;;;;;3606757;39;20278;-60
2021/05/08 06:29:32;;;;;;;7.95;6.00;;;;;;;;;;3606156;39;20537;-61
2021/05/08 06:31:57;;;;;;;7.82;6.50;;;;;;;;;;3609303;39;20051;-61
2021/05/08 06:34:23;;;;;;;10.23;5.93;;;;;;;;;;3607038;39;20031;-61
2021/05/08 06:36:48;;;;;;;7.40;5.80;;;;;;;;;;3607638;39;20035;-61
2021/05/08 06:39:14;;;;;;;11.07;9.02;;;;;;;;;;3608135;39;20039;-62
2021/05/08 06:41:39;;;;;;;10.18;7.43;;;;;;;;;;3605128;39;20040;-63
2021/05/08 06:44:05;;;;;;;9.50;6.60;;;;;;;;;;3607510;39;20048;-62
2021/05/08 06:46:30;;;;;;;6.85;5.68;;;;;;;;;;3608249;39;20039;-62
2021/05/08 06:48:56;;;;;;;8.95;6.65;;;;;;;;;;3608216;39;20040;-62
2021/05/08 06:51:22;;;;;;;8.23;7.07;;;;;;;;;;3607173;39;20496;-62
2021/05/08 06:53:47;;;;;;;9.68;6.18;;;;;;;;;;3606985;39;20046;-62
2021/05/08 06:56:13;;;;;;;7.05;5.90;;;;;;;;;;3611020;39;20068;-62
2021/05/08 06:58:40;;;;;;;15.25;5.95;;;;;;;;;;3608026;39;20503;-62
2021/05/08 07:01:06;;;;;;;6.93;5.80;;;;;;;;;;3612576;39;20143;-61
2021/05/08 07:03:31;;;;;;;7.95;5.65;;;;;;;;;;3613298;39;20035;-61
2021/05/08 07:05:56;;;;;;;6.88;5.55;;;;;;;;;;3610693;39;20039;-61
2021/05/08 07:08:22;;;;;;;8.35;5.80;;;;;;;;;;3611294;39;20088;-61
2021/05/08 07:10:49;;;;;;;8.02;5.80;;;;;;;;;;3613229;39;20046;-61
2021/05/08 07:13:15;;;;;;;7.32;5.55;;;;;;;;;;3610993;39;20026;-61
2021/05/08 07:15:41;;;;;;;7.85;5.10;;;;;;;;;;3608061;39;20040;-61
2021/05/08 07:18:08;;;;;;;7.32;5.75;;;;;;;;;;3608179;39;20047;-62
2021/05/08 07:20:35;;;;;;;8.95;6.82;;;;;;;;;;3607182;39;20035;-60
2021/05/08 07:23:01;;;;;;;7.65;6.05;;;;;;;;;;3606849;39;20034;-61
2021/05/08 07:25:26;;;;;;;8.13;6.82;;;;;;;;;;3605120;39;20560;-60
2021/05/08 07:27:52;;;;;;;8.77;6.35;;;;;;;;;;3605062;39;20055;-60
2021/05/08 07:30:18;;;;;;;8.88;6.40;;;;;;;;;;3607661;39;20113;-63
2021/05/08 07:32:43;;;;;;;6.75;5.55;;;;;;;;;;3606533;39;20043;-63
2021/05/08 07:35:09;;;;;;;8.32;5.40;;;;;;;;;;3607778;39;20035;-61
2021/05/08 07:37:34;;;;;;;6.63;5.03;;;;;;;;;;3608349;39;20035;-63
2021/05/08 07:40:00;;;;;;;7.15;5.85;;;;;;;;;;3606592;39;20065;-61
2021/05/08 07:42:26;;;;;;;7.50;5.47;;;;;;;;;;3606877;39;20043;-61
2021/05/08 07:44:51;;;;;;;6.75;5.65;;;;;;;;;;3609535;39;20950;-61
2021/05/08 07:47:17;;;;;;;11.30;4.70;;;;;;;;;;3606902;39;20415;-61
2021/05/08 07:49:42;;;;;;;6.45;4.75;;;;;;;;;;3606688;39;20056;-61
2021/05/08 07:52:07;;;;;;;6.68;4.80;;;;;;;;;;3608062;39;20044;-61
2021/05/08 07:54:33;;;;;;;6.57;4.88;;;;;;;;;;3608235;39;20047;-61
2021/05/08 07:56:58;;;;;;;6.53;4.68;;;;;;;;;;3607295;39;20038;-61
2021/05/08 07:59:24;;;;;;;6.63;4.57;;;;;;;;;;3606856;39;20043;-61
2021/05/08 08:01:49;;;;;;;6.25;4.75;;;;;;;;;;3608049;39;20039;-61
2021/05/08 08:04:15;;;;;;;7.40;4.53;;;;;;;;;;3605585;39;20028;-62
2021/05/08 08:06:40;;;;;;;15.88;4.68;;;;;;;;;;3607230;39;20027;-61
2021/05/08 08:09:06;;;;;;;8.05;4.68;;;;;;;;;;3605969;39;20153;-61
2021/05/08 08:11:31;;;;;;;5.93;4.47;;;;;;;;;;3604958;39;20089;-61
2021/05/08 08:13:57;;;;;;;9.60;4.72;;;;;;;;;;3606984;39;20023;-62
2021/05/08 08:16:23;;;;;;;6.35;4.68;;;;;;;;;;3606150;39;20036;-61
2021/05/08 08:18:48;;;;;;;11.50;4.65;;;;;;;;;;3607154;39;20371;-61
2021/05/08 08:21:14;;;;;;;7.35;4.40;;;;;;;;;;3606756;39;20043;-61
2021/05/08 08:23:40;;;;;;;7.40;4.53;;;;;;;;;;3608245;39;20028;-62
2021/05/08 08:26:05;;;;;;;7.75;4.93;;;;;;;;;;3606988;39;20780;-62
2021/05/08 08:28:31;;;;;;;7.57;5.20;;;;;;;;;;3605338;39;20446;-61
2021/05/08 08:30:56;;;;;;;6.70;4.75;;;;;;;;;;3608039;39;20295;-61
2021/05/08 08:33:21;;;;;;;6.50;4.80;;;;;;;;;;3606278;39;20179;-62
2021/05/08 08:35:47;;;;;;;7.20;4.78;;;;;;;;;;3606756;39;20047;-62
2021/05/08 08:38:13;;;;;;;7.40;5.22;;;;;;;;;;3606788;39;20042;-61
2021/05/08 08:40:39;;;;;;;8.23;4.93;;;;;;;;;;3609159;39;20036;-61
2021/05/08 08:43:05;;;;;;;7.05;5.15;;;;;;;;;;3608109;39;20043;-61
2021/05/08 08:45:31;;;;;;;7.47;5.25;;;;;;;;;;3608275;39;20032;-61
2021/05/08 08:47:57;;;;;;;6.82;5.78;;;;;;;;;;3606556;39;20443;-61
2021/05/08 08:50:24;;;;;;;6.78;5.32;;;;;;;;;;3608104;39;20056;-62
2021/05/08 08:52:49;;;;;;;11.43;5.32;;;;;;;;;;3607663;39;20052;-60
2021/05/08 08:55:15;;;;;;;5.88;4.93;;;;;;;;;;3608333;39;20143;-61
2021/05/08 08:57:43;;;;;;;9.90;5.05;;;;;;;;;;3609013;39;20023;-61
2021/05/08 09:00:15;;;;;;;8.63;5.90;;;;;;;;;;3609121;39;20031;-62
2021/05/08 09:02:48;;;;;;;7.50;5.22;;;;;;;;;;3606850;39;20031;-61
2021/05/08 09:05:16;;;;;;;7.57;5.70;;;;;;;;;;3607783;39;20023;-61
2021/05/08 09:07:46;;;;;;;6.80;4.88;;;;;;;;;;3608627;39;20529;-62
2021/05/08 09:10:32;;;;;;;9.05;4.82;;;;;;;;;;3607533;39;20349;-61
2021/05/08 09:13:00;;;;;;;8.52;5.30;;;;;;;;;;3608526;39;20252;-61
2021/05/08 09:15:29;;;;;;;14.15;4.80;;;;;;;;;;3608350;39;20083;-62
2021/05/08 09:17:55;;;;;;;5.38;4.30;;;;;;;;;;3608343;39;20053;-61
2021/05/08 09:20:20;;;;;;;7.88;5.07;;;;;;;;;;3607433;39;20036;-62
2021/05/08 09:22:46;;;;;;;6.05;4.38;;;;;;;;;;3607942;39;20132;-62
2021/05/08 09:25:16;;;;;;;8.50;5.35;;;;;;;;;;3608014;39;20045;-62
2021/05/08 09:27:44;;;;;;;8.02;4.95;;;;;;;;;;3607265;39;20393;-62
2021/05/08 09:30:11;;;;;;;7.38;5.05;;;;;;;;;;3606917;39;20057;-63
2021/05/08 09:32:39;;;;;;;7.95;4.70;;;;;;;;;;3607533;39;20495;-62
2021/05/08 09:35:07;;;;;;;10.70;6.57;;;;;;;;;;3607776;39;20039;-62
2021/05/08 09:37:33;;;;;;;6.55;4.18;;;;;;;;;;3605336;39;20040;-63
2021/05/08 09:40:14;;;;;;;7.88;4.32;;;;;;;;;;3608758;39;20395;-62
2021/05/08 09:42:48;;;;;;;5.78;4.05;;;;;;;;;;3607601;39;20035;-62
2021/05/08 09:45:14;;;;;;;6.47;4.13;;;;;;;;;;3608102;39;20044;-62
2021/05/08 09:47:40;;;;;;;7.35;4.05;;;;;;;;;;3606874;39;20028;-62
2021/05/08 09:50:06;;;;;;;5.90;3.65;;;;;;;;;;3608689;39;20397;-62
2021/05/08 09:52:41;;;;;;;9.25;4.35;;;;;;;;;;3607347;39;20631;-63
2021/05/08 09:55:07;;;;;;;6.28;3.63;;;;;;;;;;3608501;39;20039;-61
2021/05/08 09:57:32;;;;;;;6.45;3.95;;;;;;;;;;3608141;39;20087;-62
2021/05/08 09:59:58;;;;;;;7.72;4.80;;;;;;;;;;3606580;39;20035;-62
2021/05/08 10:02:23;;;;;;;6.95;4.18;;;;;;;;;;3608311;39;20044;-63
2021/05/08 10:04:51;;;;;;;11.38;8.27;;;;;;;;;;3606472;39;20520;-62
2021/05/08 10:07:21;;;;;;;8.85;4.70;;;;;;;;;;3608273;39;20048;-62
2021/05/08 10:09:49;;;;;;;16.52;13.10;;;;;;;;;;3608061;39;20140;-63
2021/05/08 10:12:16;;;;;;;6.25;3.20;;;;;;;;;;3608424;39;20043;-62
2021/05/08 10:14:47;;;;;;;8.07;2.95;;;;;;;;;;3607973;39;20027;-62
2021/05/08 10:17:13;;;;;;;;;;;;;;;;;;3607249;39;20035;-61
2021/05/08 10:19:40;;;;;;;7.43;3.05;;;;;;;;;;3608672;39;20088;-62
2021/05/08 10:22:10;;;;;;;5.80;3.22;;;;;;;;;;3608447;39;20042;-62
2021/05/08 10:24:38;;;;;;;9.55;2.85;;;;;;;;;;3607059;39;20091;-62
2021/05/08 10:27:04;;;;;;;7.40;2.88;;;;;;;;;;3607499;39;20416;-63
2021/05/08 10:29:35;;;;;;;5.57;2.63;;;;;;;;;;3606293;39;20043;-63
2021/05/08 10:32:03;;;;;;;10.07;2.35;;;;;;;;;;3606575;39;20520;-62
2021/05/08 10:34:37;;;;;;;5.93;2.28;;;;;;;;;;3608397;39;20071;-62
2021/05/08 10:37:11;;;;;;;4.32;2.47;;;;;;;;;;3606076;39;20035;-63
2021/05/08 10:40:14;;;;;;;6.55;3.60;;;;;;;;;;3605981;39;20082;-63
2021/05/08 10:42:50;;;;;;;7.95;2.65;;;;;;;;;;3608553;39;20069;-59
2021/05/08 10:45:18;;;;;;;6.57;3.83;;;;;;;;;;3605808;39;20028;-60
2021/05/08 10:47:59;;;;;;;10.57;2.03;;;;;;;;;;3605845;39;20554;-62
2021/05/08 10:50:34;;;;;;;;;;;;;;;;;;3608036;39;20279;-60
2021/05/08 10:53:00;;;;;;;4.82;2.33;;;;;;;;;;3607039;39;19928;-60
2021/05/08 10:55:25;;;;;;;10.98;2.65;;;;;;;;;;3604631;39;20118;-61
2021/05/08 10:58:21;;;;;;;7.07;2.78;;;;;;;;;;3607794;39;20290;-61
2021/05/08 11:00:47;;;;;;;4.90;1.85;;;;;;;;;;3606405;39;20043;-63
2021/05/08 11:03:14;;;;;;;4.20;2.10;;;;;;;;;;3607212;39;20084;-62
2021/05/08 11:05:57;;;;;;;4.63;2.15;;;;;;;;;;3607109;39;20051;-63
2021/05/08 11:08:25;;;;;;;4.97;2.03;;;;;;;;;;3606879;39;20286;-61
2021/05/08 11:11:03;;;;;;;5.40;2.50;;;;;;;;;;3607088;39;20384;-62
2021/05/08 11:13:41;;;;;;;5.28;1.85;;;;;;;;;;3608092;39;20028;-63
2021/05/08 11:16:11;;;;;;;4.50;1.98;;;;;;;;;;3605539;39;20377;-62
2021/05/08 11:18:45;;;;;;;3.97;2.10;;;;;;;;;;3607843;39;20051;-63
2021/05/08 11:21:10;;;;;;;4.25;1.98;;;;;;;;;;3607940;39;20039;-62
2021/05/08 11:23:41;;;;;;;6.53;2.03;;;;;;;;;;3606719;39;20038;-62
2021/05/08 11:26:29;;;;;;;5.95;2.35;;;;;;;;;;3607103;39;20092;-60
2021/05/08 11:28:55;;;;;;;3.63;1.90;;;;;;;;;;3606140;39;20272;-61
2021/05/08 11:31:28;;;;;;;4.00;1.90;;;;;;;;;;3604447;39;20043;-61
2021/05/08 11:34:12;;;;;;;7.90;2.10;;;;;;;;;;3606251;39;20043;-62
2021/05/08 11:36:46;;;;;;;5.43;1.95;;;;;;;;;;3606046;39;20369;-62
2021/05/08 11:39:14;;;;;;;4.85;2.10;;;;;;;;;;3607087;39;20394;-61
2021/05/08 11:41:40;;;;;;;3.97;2.00;;;;;;;;;;3606982;39;20378;-61
2021/05/08 11:44:06;;;;;;;3.83;1.63;;;;;;;;;;3606847;39;20035;-61
2021/05/08 11:46:33;;;;;;;3.50;1.73;;;;;;;;;;3605738;39;20046;-61
2021/05/08 11:48:59;;;;;;;4.82;2.00;;;;;;;;;;3607024;39;20032;-62
2021/05/08 11:51:25;;;;;;;4.50;1.80;;;;;;;;;;3606928;39;20095;-61
2021/05/08 11:54:20;;;;;;;4.03;2.00;;;;;;;;;;3609242;39;20036;-60
2021/05/08 11:56:45;;;;;;;5.47;1.30;;;;;;;;;;3604997;39;20382;-60
2021/05/08 11:59:11;;;;;;;3.53;1.98;;;;;;;;;;3607396;39;20048;-61
2021/05/08 12:01:36;;;;;;;7.78;2.72;;;;;;;;;;3613335;39;20359;-61
2021/05/08 12:04:03;;;;;;;3.30;1.70;;;;;;;;;;3607703;39;20040;-62
2021/05/08 12:06:29;;;;;;;5.85;1.88;;;;;;;;;;3606748;39;20035;-62
2021/05/08 12:08:56;;;;;;;4.60;2.08;;;;;;;;;;3606695;39;20058;-62
2021/05/08 12:11:23;;;;;;;4.70;2.10;;;;;;;;;;3610635;39;20027;-62
2021/05/08 12:13:48;;;;;;;5.43;1.98;;;;;;;;;;3609829;39;20355;-64
2021/05/08 12:16:14;;;;;;;3.70;1.80;;;;;;;;;;3609517;39;20054;-60
2021/05/08 12:18:41;;;;;;;4.72;2.08;;;;;;;;;;3607187;39;20051;-62
2021/05/08 12:21:08;;;;;;;3.40;1.70;;;;;;;;;;3606628;39;20138;-61
2021/05/08 12:23:35;;;;;;;5.78;1.88;;;;;;;;;;3609668;39;20478;-62
2021/05/08 12:26:11;;;;;;;4.28;1.90;;;;;;;;;;3607501;39;20344;-62
2021/05/08 12:28:41;;;;;;;3.42;1.50;;;;;;;;;;3608114;39;20270;-62
2021/05/08 12:31:32;;;;;;;6.07;2.17;;;;;;;;;;3616110;39;20063;-62
2021/05/08 12:34:06;;;;;;;10.73;3.30;;;;;;;;;;3611372;39;20039;-61
2021/05/08 12:36:34;;;;;;;6.18;2.17;;;;;;;;;;3605163;39;20028;-62
2021/05/08 12:39:20;;;;;;;3.92;1.83;;;;;;;;;;3609496;39;20082;-62
2021/05/08 12:41:53;;;;;;;5.07;2.33;;;;;;;;;;3608570;39;20291;-61
2021/05/08 12:44:40;;;;;;;6.63;2.13;;;;;;;;;;3611651;39;20044;-61
2021/05/08 12:47:19;;;;;;;4.13;2.13;;;;;;;;;;3610654;39;20231;-61
2021/05/08 12:50:08;;;;;;;3.40;1.80;;;;;;;;;;3608500;39;20117;-62
2021/05/08 12:52:35;;;;;;;3.65;1.73;;;;;;;;;;3607830;39;20027;-61
2021/05/08 12:55:00;;;;;;;4.63;1.67;;;;;;;;;;3608318;39;20054;-61
2021/05/08 12:57:28;;;;;;;4.15;1.60;;;;;;;;;;3608234;39;20043;-61
2021/05/08 13:00:10;;;;;;;6.05;2.05;;;;;;;;;;3608779;39;20102;-62
2021/05/08 13:02:36;;;;;;;4.25;2.00;;;;;;;;;;3606431;39;20046;-60
2021/05/08 13:05:13;;;;;;;4.07;1.90;;;;;;;;;;3607539;39;20541;-60
2021/05/08 13:07:40;;;;;;;4.00;1.80;;;;;;;;;;3606017;39;20050;-62
2021/05/08 13:10:25;;;;;;;3.88;1.88;;;;;;;;;;3606464;39;20055;-61
2021/05/08 13:12:58;;;;;;;5.93;1.83;;;;;;;;;;3604419;39;20040;-61
2021/05/08 13:15:35;;;;;;;4.22;1.65;;;;;;;;;;3607622;39;20047;-60
2021/05/08 13:18:02;;;;;;;4.10;2.13;;;;;;;;;;3605729;39;20057;-60
2021/05/08 13:20:35;;;;;;;4.60;1.80;;;;;;;;;;3605801;39;20051;-61
2021/05/08 13:23:02;;;;;;;4.05;2.08;;;;;;;;;;3604117;39;20039;-62
2021/05/08 13:25:28;;;;;;;7.45;1.92;;;;;;;;;;3604391;39;20036;-62
2021/05/08 13:27:54;;;;;;;3.28;1.75;;;;;;;;;;3607475;39;20073;-61
2021/05/08 13:30:22;;;;;;;3.40;1.65;;;;;;;;;;3608234;39;20035;-61
2021/05/08 13:32:52;;;;;;;4.70;2.22;;;;;;;;;;3609696;39;20123;-62
2021/05/08 13:35:18;;;;;;;3.60;1.75;;;;;;;;;;3606898;39;20140;-61
2021/05/08 13:37:45;;;;;;;4.05;2.22;;;;;;;;;;3607228;39;20090;-61
2021/05/08 13:40:12;;;;;;;3.47;2.03;;;;;;;;;;3607469;39;20299;-61
2021/05/08 13:42:38;;;;;;;3.33;1.83;;;;;;;;;;3607809;39;20048;-61
2021/05/08 13:45:04;;;;;;;4.72;1.83;;;;;;;;;;3607985;39;20026;-61
2021/05/08 13:47:29;;;;;;;5.20;2.15;;;;;;;;;;3608121;39;20032;-61
2021/05/08 13:49:56;;;;;;;3.53;1.92;;;;;;;;;;3605752;39;20050;-61
2021/05/08 13:52:24;;;;;;;6.50;2.67;;;;;;;;;;3609235;39;20118;-61
2021/05/08 13:54:50;;;;;;;5.57;1.92;;;;;;;;;;3607119;39;20047;-62
2021/05/08 13:57:16;;;;;;;4.80;2.10;;;;;;;;;;3608934;39;20051;-61
2021/05/08 13:59:42;;;;;;;6.15;2.30;;;;;;;;;;3608953;39;20606;-61
2021/05/08 14:02:07;;;;;;;4.07;2.17;;;;;;;;;;3607203;39;20036;-61
2021/05/08 14:04:33;;;;;;;3.10;1.75;;;;;;;;;;3607669;39;20038;-61
2021/05/08 14:06:58;;;;;;;3.70;1.73;;;;;;;;;;3606026;39;20035;-61
2021/05/08 14:09:24;;;;;;;6.78;2.15;;;;;;;;;;3606882;39;20256;-61
2021/05/08 14:11:49;;;;;;;6.93;1.83;;;;;;;;;;3605886;39;20469;-61
2021/05/08 14:14:15;;;;;;;3.00;1.58;;;;;;;;;;3607027;39;20124;-61
2021/05/08 14:16:41;;;;;;;4.28;1.70;;;;;;;;;;3607151;39;20031;-61
2021/05/08 14:19:06;;;;;;;3.30;1.60;;;;;;;;;;3606958;39;20036;-61
2021/05/08 14:21:33;;;;;;;4.47;1.52;;;;;;;;;;3607974;39;20030;-61
2021/05/08 14:23:58;;;;;;;2.35;1.13;;;;;;;;;;3608907;39;20046;-61
2021/05/08 14:26:23;;;;;;;6.25;1.73;;;;;;;;;;3606517;39;20047;-61
2021/05/08 14:28:49;;;;;;;2.08;1.20;;;;;;;;;;3606904;39;20032;-61
2021/05/08 14:31:14;;;;;;;3.80;1.20;;;;;;;;;;3606658;39;20046;-61
2021/05/08 14:33:39;;;;;;;3.63;1.58;;;;;;;;;;3607469;39;20476;-61
2021/05/08 14:36:05;;;;;;;5.75;1.70;;;;;;;;;;3606467;39;20036;-61
2021/05/08 14:38:30;;;;;;;2.90;1.33;;;;;;;;;;3607441;39;20042;-61
2021/05/08 14:40:56;;;;;;;3.80;1.52;;;;;;;;;;3607593;39;20081;-61
2021/05/08 14:43:21;;;;;;;4.32;1.67;;;;;;;;;;3607363;39;20038;-61